Time;durP1;ratioP1;P1;durP2;ratioP2;P2;SDS_P1;SDS_P2;PMS_P1;PMS_P2;Temp;Humidity;BMP_temperature;BMP_pressure;BME280_temperature;BME280_humidity;BME280_pressure;Samples;Min_cycle;Max_cycle;Signal;HPM_P1;HPM_P2
2023/01/08 00:00:17;;;;;;;3.03;1.70;;;;;;;9.77;100.00;99750.72;687911;28;1394;-64
2023/01/08 00:00:37;;;;;;;3.55;1.80;;;;;;;9.76;100.00;99754.25;688467;28;4608;-66
2023/01/08 00:01:04;;;;;;;3.60;1.90;;;;;;;9.76;100.00;99758.59;689130;28;1428;-64
2023/01/08 00:01:24;;;;;;;3.33;1.75;;;;;;;9.80;100.00;99755.03;689078;28;1108;-65
2023/01/08 00:01:44;;;;;;;3.25;1.80;;;;;;;9.83;100.00;99748.03;689410;28;1312;-67
2023/01/08 00:02:05;;;;;;;3.50;1.90;;;;;;;9.80;100.00;99757.66;687378;28;1485;-63
2023/01/08 00:02:25;;;;;;;3.13;1.75;;;;;;;9.81;100.00;99759.38;689084;28;1519;-64
2023/01/08 00:02:48;;;;;;;3.63;1.77;;;;;;;9.79;100.00;99753.31;689348;28;1331;-66
2023/01/08 00:03:09;;;;;;;4.72;1.70;;;;;;;9.80;100.00;99761.13;687555;28;1300;-61
2023/01/08 00:03:29;;;;;;;3.45;1.60;;;;;;;9.82;100.00;99759.34;687841;28;1382;-65
2023/01/08 00:03:50;;;;;;;3.93;1.70;;;;;;;9.83;100.00;99749.75;687426;28;5157;-67
2023/01/08 00:04:10;;;;;;;3.20;1.53;;;;;;;9.84;100.00;99751.50;687710;28;1669;-64
2023/01/08 00:04:31;;;;;;;3.10;1.80;;;;;;;9.78;100.00;99749.00;688448;28;1722;-65
2023/01/08 00:04:51;;;;;;;3.28;1.70;;;;;;;9.78;100.00;99749.84;685772;28;2193;-67
2023/01/08 00:05:11;;;;;;;3.73;1.73;;;;;;;9.79;100.00;99750.69;685106;28;2144;-63
2023/01/08 00:05:32;;;;;;;3.35;1.90;;;;;;;9.76;100.00;99751.63;688654;28;1413;-64
2023/01/08 00:05:52;;;;;;;2.93;1.80;;;;;;;9.78;100.00;99754.22;687255;28;1299;-65
2023/01/08 00:06:17;;;;;;;3.08;1.70;;;;;;;9.81;100.00;99757.63;687362;28;1115;-70
2023/01/08 00:06:37;;;;;;;3.08;1.80;;;;;;;9.85;100.00;99758.44;687879;28;4527;-65
2023/01/08 00:06:57;;;;;;;3.27;1.70;;;;;;;9.83;100.00;99752.38;688755;28;1392;-65
2023/01/08 00:07:18;;;;;;;3.93;1.90;;;;;;;9.79;100.00;99754.19;687572;28;1153;-65
2023/01/08 00:07:39;;;;;;;3.50;2.00;;;;;;;9.75;100.00;99755.13;688327;28;1261;-65
2023/01/08 00:07:59;;;;;;;3.10;1.95;;;;;;;9.72;100.00;99757.78;688496;28;1297;-65
2023/01/08 00:08:19;;;;;;;3.15;1.80;;;;;;;9.77;100.00;99750.72;688580;28;1292;-66
2023/01/08 00:08:40;;;;;;;3.63;1.90;;;;;;;9.82;100.00;99759.34;687142;28;977;-66
2023/01/08 00:09:00;;;;;;;3.85;1.70;;;;;;;9.77;100.00;99757.69;688151;28;1255;-65
2023/01/08 00:09:21;;;;;;;3.70;1.80;;;;;;;9.76;100.00;99764.69;687562;28;1427;-65
2023/01/08 00:09:42;;;;;;;3.80;1.80;;;;;;;9.80;100.00;99761.13;687561;28;4357;-65
2023/01/08 00:10:03;;;;;;;3.40;1.77;;;;;;;9.79;100.00;99762.00;688620;28;1495;-65
2023/01/08 00:10:23;;;;;;;3.47;1.90;;;;;;;9.77;100.00;99755.09;688794;28;1320;-65
2023/01/08 00:10:43;;;;;;;3.20;1.70;;;;;;;9.76;100.00;99762.06;688389;28;1390;-65
2023/01/08 00:11:04;;;;;;;2.92;1.63;;;;;;;9.79;100.00;99754.19;688280;28;1526;-66
2023/01/08 00:11:25;;;;;;;4.00;2.00;;;;;;;9.73;100.00;99758.63;687916;28;1250;-64
2023/01/08 00:11:48;;;;;;;3.50;1.90;;;;;;;9.69;100.00;99757.81;689029;28;1506;-65
2023/01/08 00:12:08;;;;;;;2.83;1.80;;;;;;;9.69;100.00;99760.41;687296;28;1637;-65
2023/01/08 00:12:28;;;;;;;3.65;1.85;;;;;;;9.75;100.00;99755.13;687747;28;1411;-67
2023/01/08 00:12:49;;;;;;;3.50;1.70;;;;;;;9.77;100.00;99761.16;688073;28;4307;-65
2023/01/08 00:13:09;;;;;;;3.33;1.90;;;;;;;9.79;100.00;99767.25;687844;28;1454;-64
2023/01/08 00:13:30;;;;;;;3.17;1.90;;;;;;;9.73;100.00;99762.09;688454;28;1242;-65
2023/01/08 00:13:50;;;;;;;2.93;1.70;;;;;;;9.70;100.00;99759.53;688572;28;1617;-65
2023/01/08 00:14:13;;;;;;;3.25;1.80;;;;;;;9.67;100.00;99763.06;688170;28;1323;-65
2023/01/08 00:14:33;;;;;;;3.58;1.92;;;;;;;9.64;100.00;99764.88;689029;28;1360;-65
2023/01/08 00:14:53;;;;;;;3.33;2.00;;;;;;;9.62;100.00;99764.00;688631;28;1100;-65
2023/01/08 00:15:14;;;;;;;3.27;1.80;;;;;;;9.59;100.00;99761.47;687598;28;1371;-65
2023/01/08 00:15:34;;;;;;;3.08;1.77;;;;;;;9.54;100.00;99758.94;687754;28;1347;-65
2023/01/08 00:15:55;;;;;;;3.10;1.87;;;;;;;9.52;100.00;99771.13;688233;28;4351;-65
2023/01/08 00:16:16;;;;;;;3.45;1.90;;;;;;;9.49;100.00;99766.81;686082;28;1153;-65
2023/01/08 00:16:37;;;;;;;2.80;1.70;;;;;;;9.48;100.00;99764.22;684766;28;1153;-65
2023/01/08 00:16:57;;;;;;;3.33;1.80;;;;;;;9.47;100.00;99762.50;685435;28;1069;-64
2023/01/08 00:17:17;;;;;;;3.63;2.10;;;;;;;9.48;100.00;99766.84;689816;28;1383;-65
2023/01/08 00:17:38;;;;;;;3.20;1.80;;;;;;;9.56;100.00;99764.13;685152;28;1436;-64
2023/01/08 00:17:59;;;;;;;2.90;1.80;;;;;;;9.54;100.00;99761.53;685785;28;1304;-65
2023/01/08 00:18:20;;;;;;;3.03;1.88;;;;;;;9.60;100.00;99768.41;686593;28;1677;-65
2023/01/08 00:18:40;;;;;;;3.17;1.80;;;;;;;9.58;100.00;99759.72;685357;28;4415;-65
2023/01/08 00:19:01;;;;;;;3.50;1.95;;;;;;;9.54;100.00;99754.56;684939;28;1181;-64
2023/01/08 00:19:21;;;;;;;3.20;1.90;;;;;;;9.55;100.00;99755.41;686273;28;1214;-65
2023/01/08 00:19:41;;;;;;;3.38;1.90;;;;;;;9.62;100.00;99758.78;687098;28;1243;-66
2023/01/08 00:20:02;;;;;;;3.30;1.80;;;;;;;9.64;100.00;99754.44;687356;28;4080;-65
2023/01/08 00:20:23;;;;;;;3.20;1.88;;;;;;;9.60;100.00;99750.16;689127;28;1426;-65
2023/01/08 00:20:45;;;;;;;3.50;2.10;;;;;;;9.70;100.00;99752.56;687851;28;1389;-66
2023/01/08 00:21:06;;;;;;;3.42;2.03;;;;;;;9.75;100.00;99757.72;687944;28;1413;-65
2023/01/08 00:21:27;;;;;;;3.15;1.92;;;;;;;9.70;100.00;99752.56;689336;28;1235;-64
2023/01/08 00:21:48;;;;;;;2.97;1.80;;;;;;;9.65;100.00;99750.91;685894;28;4331;-65
2023/01/08 00:22:09;;;;;;;3.33;1.90;;;;;;;9.66;100.00;99748.31;688220;28;1357;-65
2023/01/08 00:22:30;;;;;;;3.28;2.00;;;;;;;9.68;100.00;99746.53;689020;28;1037;-63
2023/01/08 00:22:51;;;;;;;3.50;1.88;;;;;;;9.76;100.00;99750.75;689485;28;1726;-65
2023/01/08 00:23:12;;;;;;;3.15;1.75;;;;;;;9.75;100.00;99742.06;688369;28;1374;-65
2023/01/08 00:23:33;;;;;;;3.30;1.83;;;;;;;9.72;100.00;99747.34;688324;28;1322;-65
2023/01/08 00:23:54;;;;;;;3.42;1.90;;;;;;;9.63;100.00;99744.88;688120;28;1927;-65
2023/01/08 00:24:14;;;;;;;3.30;1.90;;;;;;;9.65;100.00;99746.56;688922;28;1127;-64
2023/01/08 00:24:35;;;;;;;3.20;1.83;;;;;;;9.70;100.00;99749.94;689629;28;1248;-66
2023/01/08 00:24:55;;;;;;;3.33;1.80;;;;;;;9.80;100.00;99745.47;684240;28;4259;-68
2023/01/08 00:25:17;;;;;;;3.83;1.90;;;;;;;9.81;100.00;99743.72;685013;28;1177;-65
2023/01/08 00:25:37;;;;;;;3.90;2.00;;;;;;;9.80;100.00;99750.69;685807;28;1278;-65
2023/01/08 00:26:06;;;;;;;3.07;1.77;;;;;;;9.78;100.00;99749.00;684933;28;1486;-65
2023/01/08 00:26:26;;;;;;;2.72;1.80;;;;;;;9.75;100.00;99747.28;685663;28;1208;-65
2023/01/08 00:26:47;;;;;;;3.53;1.93;;;;;;;9.70;100.00;99751.72;688918;28;1481;-66
2023/01/08 00:27:07;;;;;;;4.10;2.10;;;;;;;9.65;100.00;99748.31;686305;28;1237;-65
2023/01/08 00:27:27;;;;;;;3.20;2.00;;;;;;;9.62;100.00;99740.53;686686;28;1188;-65
2023/01/08 00:27:48;;;;;;;3.13;2.00;;;;;;;9.65;100.00;99746.56;685427;28;4555;-65
2023/01/08 00:28:08;;;;;;;3.20;2.00;;;;;;;9.63;100.00;99745.72;681829;28;1401;-65
2023/01/08 00:28:29;;;;;;;3.55;2.10;;;;;;;9.67;100.00;99751.78;684201;28;1153;-65
2023/01/08 00:28:50;;;;;;;3.15;2.00;;;;;;;9.68;100.00;99748.28;683104;28;1539;-64
2023/01/08 00:29:10;;;;;;;4.17;2.20;;;;;;;9.63;100.00;99750.94;683880;28;1624;-64
2023/01/08 00:29:30;;;;;;;4.70;2.00;;;;;;;9.61;100.00;99747.50;684964;28;1665;-61
2023/01/08 00:29:51;;;;;;;3.60;1.90;;;;;;;9.69;100.00;99747.38;685838;28;1828;-65
2023/01/08 00:30:11;;;;;;;3.20;1.90;;;;;;;9.80;100.00;99750.69;687605;28;1449;-66
2023/01/08 00:30:32;;;;;;;2.95;1.80;;;;;;;9.78;100.00;99752.44;688665;28;1514;-66
2023/01/08 00:30:53;;;;;;;3.17;1.90;;;;;;;9.73;100.00;99743.81;687565;28;4495;-64
2023/01/08 00:31:13;;;;;;;3.57;1.90;;;;;;;9.69;100.00;99756.09;688744;28;1621;-64
2023/01/08 00:31:33;;;;;;;4.07;1.98;;;;;;;9.77;100.00;99745.50;689454;28;1467;-65
2023/01/08 00:31:54;;;;;;;3.87;2.00;;;;;;;9.78;100.00;99736.78;687329;28;1170;-65
2023/01/08 00:32:14;;;;;;;3.10;1.80;;;;;;;9.82;100.00;99748.91;687327;28;1328;-66
2023/01/08 00:32:34;;;;;;;3.17;1.77;;;;;;;9.77;100.00;99742.03;687480;28;1552;-65
2023/01/08 00:32:55;;;;;;;3.60;2.00;;;;;;;9.73;100.00;99743.81;687136;28;1544;-65
2023/01/08 00:33:15;;;;;;;3.35;2.15;;;;;;;9.68;100.00;99738.69;689646;28;1190;-65
2023/01/08 00:33:37;;;;;;;3.43;2.03;;;;;;;9.62;100.00;99740.53;688533;28;1444;-63
2023/01/08 00:33:57;;;;;;;3.13;1.90;;;;;;;9.67;100.00;99738.72;686674;28;4604;-66
2023/01/08 00:34:17;;;;;;;3.30;2.00;;;;;;;9.68;100.00;99740.44;688915;28;1413;-65
2023/01/08 00:34:38;;;;;;;3.80;2.10;;;;;;;9.68;100.00;99741.31;685042;28;1462;-65
2023/01/08 00:35:00;;;;;;;4.07;2.05;;;;;;;9.69;100.00;99740.41;685308;28;1544;-63
2023/01/08 00:35:20;;;;;;;3.22;1.90;;;;;;;9.69;100.00;99739.53;685346;28;1338;-64
2023/01/08 00:35:40;;;;;;;2.87;1.80;;;;;;;9.65;100.00;99730.03;685917;28;1231;-67
2023/01/08 00:36:09;;;;;;;3.17;1.90;;;;;;;9.62;100.00;99732.69;683763;28;1306;-64
2023/01/08 00:36:29;;;;;;;4.25;2.20;;;;;;;9.58;100.00;99728.41;685737;28;1486;-65
2023/01/08 00:36:49;;;;;;;4.30;2.05;;;;;;;9.58;100.00;99737.13;687106;28;4375;-65
2023/01/08 00:37:10;;;;;;;3.70;2.10;;;;;;;9.54;100.00;99731.09;688067;28;1413;-69
2023/01/08 00:37:30;;;;;;;3.70;1.90;;;;;;;9.51;100.00;99732.88;689307;28;1398;-65
2023/01/08 00:37:51;;;;;;;3.70;1.98;;;;;;;9.48;100.00;99733.75;689065;28;1670;-65
2023/01/08 00:38:11;;;;;;;3.47;2.03;;;;;;;9.45;100.00;99733.81;688000;28;1639;-65
2023/01/08 00:38:32;;;;;;;3.58;2.10;;;;;;;9.43;100.00;99735.59;686525;28;1444;-65
2023/01/08 00:38:52;;;;;;;3.40;1.90;;;;;;;9.41;100.00;99726.94;689094;28;5216;-65
2023/01/08 00:39:12;;;;;;;3.40;1.93;;;;;;;9.52;100.00;99727.63;687793;28;1233;-65
2023/01/08 00:39:33;;;;;;;3.50;2.00;;;;;;;9.54;100.00;99725.88;686387;28;1334;-64
2023/01/08 00:39:53;;;;;;;3.78;2.10;;;;;;;9.53;100.00;99731.09;688250;28;4411;-65
2023/01/08 00:40:14;;;;;;;3.53;1.93;;;;;;;9.50;100.00;99732.00;687478;28;1304;-64
2023/01/08 00:40:35;;;;;;;3.30;1.80;;;;;;;9.55;100.00;99724.09;687533;28;1465;-65
2023/01/08 00:40:55;;;;;;;3.10;1.70;;;;;;;9.53;100.00;99726.75;686450;28;1127;-65
2023/01/08 00:41:16;;;;;;;3.10;1.87;;;;;;;9.54;100.00;99736.31;688163;28;1322;-66
2023/01/08 00:41:36;;;;;;;2.90;1.80;;;;;;;9.53;100.00;99729.34;686183;28;1365;-65
2023/01/08 00:41:57;;;;;;;3.20;1.90;;;;;;;9.51;100.00;99733.75;684936;28;1011;-65
2023/01/08 00:42:17;;;;;;;3.33;1.90;;;;;;;9.47;100.00;99734.69;686906;28;1467;-65
2023/01/08 00:42:38;;;;;;;3.60;1.90;;;;;;;9.45;100.00;99731.22;684679;28;4381;-65
2023/01/08 00:42:58;;;;;;;3.30;1.77;;;;;;;9.49;100.00;99730.28;686051;28;1533;-65
2023/01/08 00:43:19;;;;;;;3.35;1.85;;;;;;;9.52;100.00;99732.84;688322;28;1463;-64
2023/01/08 00:43:39;;;;;;;4.10;1.90;;;;;;;9.63;100.00;99731.81;688223;28;1245;-64
2023/01/08 00:44:00;;;;;;;3.28;1.80;;;;;;;9.64;100.00;99733.56;687145;28;1194;-64
2023/01/08 00:44:20;;;;;;;3.50;1.90;;;;;;;9.67;100.00;99738.72;688715;28;1461;-65
2023/01/08 00:44:40;;;;;;;3.08;1.88;;;;;;;9.66;100.00;99735.25;688203;28;1594;-65
2023/01/08 00:45:01;;;;;;;3.10;1.93;;;;;;;9.68;100.00;99735.22;687527;28;1243;-65
2023/01/08 00:45:21;;;;;;;3.20;1.80;;;;;;;9.68;100.00;99736.09;689085;28;1327;-65
2023/01/08 00:45:42;;;;;;;3.83;1.93;;;;;;;9.71;100.00;99729.97;687578;28;4494;-65
2023/01/08 00:46:02;;;;;;;3.80;2.00;;;;;;;9.75;100.00;99729.03;688755;28;1466;-66
2023/01/08 00:46:23;;;;;;;3.07;1.83;;;;;;;9.76;100.00;99735.09;686669;28;1060;-64
2023/01/08 00:46:43;;;;;;;4.00;2.03;;;;;;;9.69;100.00;99731.72;687345;28;1507;-65
2023/01/08 00:47:03;;;;;;;4.03;2.03;;;;;;;9.77;100.00;99735.06;688733;28;1627;-65
2023/01/08 00:47:24;;;;;;;3.97;2.03;;;;;;;9.77;100.00;99735.06;688662;28;1510;-63
2023/01/08 00:47:44;;;;;;;3.53;2.00;;;;;;;9.76;100.00;99735.97;688831;28;1526;-64
2023/01/08 00:48:05;;;;;;;3.70;2.10;;;;;;;9.74;100.00;99732.50;687808;28;1080;-65
2023/01/08 00:48:26;;;;;;;3.55;2.00;;;;;;;9.75;100.00;99735.97;688081;28;1313;-65
2023/01/08 00:48:46;;;;;;;3.28;1.80;;;;;;;9.79;100.00;99738.53;687619;28;4435;-67
2023/01/08 00:49:06;;;;;;;3.17;1.80;;;;;;;9.77;100.00;99735.06;688011;28;1646;-65
2023/01/08 00:49:27;;;;;;;3.67;1.80;;;;;;;9.73;100.00;99727.31;689311;28;1090;-64
2023/01/08 00:49:47;;;;;;;3.00;1.73;;;;;;;9.68;100.00;99733.47;688646;28;1489;-63
2023/01/08 00:50:08;;;;;;;3.58;1.77;;;;;;;9.67;100.00;99729.13;688840;28;1510;-64
2023/01/08 00:50:28;;;;;;;4.07;1.80;;;;;;;9.63;100.00;99732.69;688136;28;1883;-65
2023/01/08 00:50:49;;;;;;;3.17;1.80;;;;;;;9.60;100.00;99727.50;688224;28;1344;-64
2023/01/08 00:51:10;;;;;;;3.40;1.88;;;;;;;9.62;100.00;99727.47;688306;28;1655;-65
2023/01/08 00:51:30;;;;;;;3.40;1.80;;;;;;;9.60;100.00;99722.28;688360;28;1672;-64
2023/01/08 00:51:50;;;;;;;3.40;1.80;;;;;;;9.54;100.00;99718.03;688620;28;4453;-64
2023/01/08 00:52:11;;;;;;;3.00;1.80;;;;;;;9.58;100.00;99723.19;687979;28;1701;-64
2023/01/08 00:52:31;;;;;;;3.28;1.80;;;;;;;9.57;100.00;99722.34;689682;28;1719;-64
2023/01/08 00:52:52;;;;;;;3.67;1.97;;;;;;;9.54;100.00;99725.00;688323;28;1963;-64
2023/01/08 00:53:12;;;;;;;4.25;2.10;;;;;;;9.57;100.00;99718.84;688407;28;1360;-62
2023/01/08 00:53:33;;;;;;;3.70;2.10;;;;;;;9.53;100.00;99716.31;689006;28;1387;-64
2023/01/08 00:53:53;;;;;;;3.70;1.80;;;;;;;9.58;100.00;99724.06;687827;28;1445;-65
2023/01/08 00:54:13;;;;;;;3.83;1.90;;;;;;;9.52;100.00;99725.00;688956;28;1506;-65
2023/01/08 00:54:34;;;;;;;4.25;1.90;;;;;;;9.49;100.00;99730.28;691510;28;1567;-64
2023/01/08 00:54:54;;;;;;;3.60;1.90;;;;;;;9.51;100.00;99727.66;689065;28;4355;-62
2023/01/08 00:55:15;;;;;;;3.83;2.00;;;;;;;9.48;100.00;99723.31;690508;28;1453;-65
2023/01/08 00:55:35;;;;;;;4.20;1.90;;;;;;;9.48;100.00;99722.47;689538;28;1440;-65
2023/01/08 00:56:04;;;;;;;3.60;2.00;;;;;;;9.53;100.00;99720.66;689281;28;1441;-65
2023/01/08 00:56:25;;;;;;;3.83;2.13;;;;;;;9.51;100.00;99723.31;686641;28;1239;-64
2023/01/08 00:56:45;;;;;;;3.73;2.00;;;;;;;9.48;100.00;99722.47;687999;28;1489;-65
2023/01/08 00:57:05;;;;;;;4.00;2.10;;;;;;;9.46;100.00;99722.50;687422;28;1451;-65
2023/01/08 00:57:26;;;;;;;3.63;1.97;;;;;;;9.45;100.00;99728.59;689265;28;1240;-64
2023/01/08 00:57:46;;;;;;;4.55;2.22;;;;;;;9.46;100.00;99722.50;688964;28;4463;-65
2023/01/08 00:58:07;;;;;;;4.27;2.50;;;;;;;9.52;100.00;99714.56;689159;28;1433;-65
2023/01/08 00:58:27;;;;;;;4.40;2.47;;;;;;;9.60;100.00;99726.66;687688;28;1706;-65
2023/01/08 00:58:48;;;;;;;4.83;2.33;;;;;;;9.69;100.00;99722.16;688922;28;1460;-65
2023/01/08 00:59:08;;;;;;;4.38;2.30;;;;;;;9.61;100.00;99717.91;687529;28;1529;-65
2023/01/08 00:59:28;;;;;;;4.80;2.30;;;;;;;9.66;100.00;99717.00;689303;28;1344;-65
2023/01/08 00:59:49;;;;;;;4.60;2.20;;;;;;;9.62;100.00;99714.44;688012;28;1292;-65
2023/01/08 01:00:13;;;;;;;4.53;2.35;;;;;;;9.54;100.00;99711.97;689357;28;1420;-65
2023/01/08 01:00:33;;;;;;;4.85;1.98;;;;;;;9.60;100.00;99713.63;688355;28;1398;-65
2023/01/08 01:00:54;;;;;;;3.35;1.90;;;;;;;9.62;100.00;99714.44;688105;28;4513;-65
2023/01/08 01:01:14;;;;;;;4.00;2.37;;;;;;;9.59;100.00;99706.66;689273;28;1189;-65
2023/01/08 01:01:38;;;;;;;4.10;2.40;;;;;;;9.60;100.00;99711.00;686717;28;1255;-65
2023/01/08 01:01:58;;;;;;;4.68;2.38;;;;;;;9.58;100.00;99708.44;685888;28;1397;-64
2023/01/08 01:02:18;;;;;;;3.92;2.17;;;;;;;9.60;100.00;99711.00;686658;28;1514;-65
2023/01/08 01:02:40;;;;;;;4.57;2.00;;;;;;;9.68;100.00;99715.19;687424;28;1455;-64
2023/01/08 01:03:00;;;;;;;4.47;2.20;;;;;;;9.71;100.00;99715.16;687277;28;1419;-64
2023/01/08 01:03:21;;;;;;;2.92;1.85;;;;;;;9.73;100.00;99711.66;687467;28;1531;-64
2023/01/08 01:03:42;;;;;;;3.77;2.00;;;;;;;9.71;100.00;99715.16;687612;28;4570;-64
2023/01/08 01:04:02;;;;;;;4.13;2.00;;;;;;;9.75;100.00;99721.19;688196;28;1631;-65
2023/01/08 01:04:25;;;;;;;3.80;2.00;;;;;;;9.68;100.00;99709.97;689504;28;1438;-64
2023/01/08 01:04:45;;;;;;;4.25;2.10;;;;;;;9.62;100.00;99714.44;688152;28;1439;-64
2023/01/08 01:05:07;;;;;;;4.47;2.20;;;;;;;9.58;100.00;99712.75;687137;28;1413;-65
2023/01/08 01:05:28;;;;;;;4.13;1.90;;;;;;;9.67;100.00;99712.63;688916;28;1497;-65
2023/01/08 01:05:48;;;;;;;3.70;2.00;;;;;;;9.63;100.00;99705.72;688564;28;1629;-64
2023/01/08 01:06:11;;;;;;;4.70;2.25;;;;;;;9.61;100.00;99713.59;687350;28;1517;-64
2023/01/08 01:06:31;;;;;;;5.20;2.10;;;;;;;9.57;100.00;99711.91;687803;28;1612;-64
2023/01/08 01:06:51;;;;;;;3.70;2.13;;;;;;;9.50;100.00;99700.69;687881;28;4375;-65
2023/01/08 01:07:12;;;;;;;4.05;2.17;;;;;;;9.48;100.00;99712.03;687323;28;1644;-63
2023/01/08 01:07:32;;;;;;;4.47;2.30;;;;;;;9.51;100.00;99712.00;685931;28;1343;-65
2023/01/08 01:07:52;;;;;;;4.30;2.30;;;;;;;9.54;100.00;99710.22;688767;28;1483;-66
2023/01/08 01:08:13;;;;;;;3.47;2.10;;;;;;;9.51;100.00;99707.66;686764;28;1164;-65
2023/01/08 01:08:34;;;;;;;3.47;1.90;;;;;;;9.64;100.00;99713.53;688084;28;1287;-65
2023/01/08 01:08:56;;;;;;;3.85;2.00;;;;;;;9.61;100.00;99705.75;689552;28;1529;-66
2023/01/08 01:09:16;;;;;;;3.15;2.03;;;;;;;9.59;100.00;99717.09;687714;28;1477;-65
2023/01/08 01:09:38;;;;;;;4.55;2.50;;;;;;;9.61;100.00;99710.09;687587;28;1741;-64
2023/01/08 01:09:58;;;;;;;4.35;2.08;;;;;;;9.60;100.00;99711.00;687842;28;5593;-63
2023/01/08 01:10:19;;;;;;;4.30;1.98;;;;;;;9.65;100.00;99715.25;688323;28;1235;-65
2023/01/08 01:10:39;;;;;;;3.42;1.92;;;;;;;9.63;100.00;99718.78;688103;28;1507;-65
2023/01/08 01:11:00;;;;;;;4.40;1.90;;;;;;;9.62;100.00;99704.00;688433;28;1283;-64
2023/01/08 01:11:25;;;;;;;3.35;1.80;;;;;;;9.59;100.00;99704.06;687404;28;1281;-65
2023/01/08 01:11:46;;;;;;;3.22;1.85;;;;;;;9.64;100.00;99712.69;690339;28;1451;-65
2023/01/08 01:12:07;;;;;;;3.40;1.80;;;;;;;9.64;100.00;99713.53;691046;28;1555;-65
2023/01/08 01:12:27;;;;;;;3.55;1.90;;;;;;;9.62;100.00;99712.72;691290;28;1295;-65
2023/01/08 01:12:48;;;;;;;4.07;2.20;;;;;;;9.61;100.00;99713.59;689863;28;4436;-65
2023/01/08 01:13:09;;;;;;;3.47;1.88;;;;;;;9.65;100.00;99709.16;690243;28;1294;-64
2023/01/08 01:13:30;;;;;;;4.20;2.25;;;;;;;9.62;100.00;99711.81;690067;28;1510;-65
2023/01/08 01:13:51;;;;;;;4.47;2.20;;;;;;;9.58;100.00;99708.44;688272;28;1467;-64
2023/01/08 01:14:11;;;;;;;3.33;1.98;;;;;;;9.63;100.00;99716.16;687155;28;1653;-65
2023/01/08 01:14:32;;;;;;;3.85;2.00;;;;;;;9.62;100.00;99715.31;687799;28;1484;-64
2023/01/08 01:14:52;;;;;;;4.07;2.00;;;;;;;9.61;100.00;99718.81;688303;28;1389;-64
2023/01/08 01:15:14;;;;;;;3.97;1.80;;;;;;;9.59;100.00;99722.31;688723;28;1207;-63
2023/01/08 01:15:35;;;;;;;3.33;1.90;;;;;;;9.70;100.00;99713.41;685619;28;1175;-64
2023/01/08 01:15:59;;;;;;;3.77;1.70;;;;;;;9.78;100.00;99713.31;686936;28;4689;-65
2023/01/08 01:16:20;;;;;;;5.18;2.10;;;;;;;9.77;100.00;99714.19;685563;28;3548;-64
2023/01/08 01:16:41;;;;;;;4.00;2.10;;;;;;;9.70;100.00;99712.56;687480;28;1278;-64
2023/01/08 01:17:01;;;;;;;3.80;2.08;;;;;;;9.63;100.00;99706.56;687062;28;1455;-64
2023/01/08 01:17:22;;;;;;;3.77;1.90;;;;;;;9.68;100.00;99703.91;687478;28;1218;-64
2023/01/08 01:17:44;;;;;;;3.90;1.80;;;;;;;9.71;100.00;99709.06;686187;28;1630;-65
2023/01/08 01:18:04;;;;;;;3.40;1.83;;;;;;;9.74;100.00;99709.03;684122;28;1510;-66
2023/01/08 01:18:24;;;;;;;3.70;1.90;;;;;;;9.76;100.00;99703.78;685317;28;1568;-66
2023/01/08 01:18:45;;;;;;;3.63;1.90;;;;;;;9.73;100.00;99712.50;683773;28;4405;-64
2023/01/08 01:19:06;;;;;;;3.53;1.83;;;;;;;9.67;100.00;99705.66;687332;28;1321;-64
2023/01/08 01:19:26;;;;;;;3.63;1.70;;;;;;;9.68;100.00;99711.75;689240;28;1243;-66
2023/01/08 01:19:47;;;;;;;3.65;1.77;;;;;;;9.62;100.00;99706.59;688703;28;1485;-63
2023/01/08 01:20:09;;;;;;;3.20;1.80;;;;;;;9.57;100.00;99713.63;687162;28;1662;-63
2023/01/08 01:20:30;;;;;;;2.67;1.60;;;;;;;9.53;100.00;99710.22;685610;28;1389;-64
2023/01/08 01:20:50;;;;;;;2.80;1.70;;;;;;;9.48;100.00;99715.50;686294;28;1345;-64
2023/01/08 01:21:20;;;;;;;3.75;1.85;;;;;;;9.49;100.00;99714.63;685256;28;1700;-65
2023/01/08 01:21:41;;;;;;;3.17;1.77;;;;;;;9.51;100.00;99715.47;683414;28;4430;-65
2023/01/08 01:22:01;;;;;;;2.80;1.70;;;;;;;9.53;100.00;99715.47;682827;28;1496;-65
2023/01/08 01:22:21;;;;;;;3.40;1.70;;;;;;;9.53;100.00;99716.31;683710;28;1243;-65
2023/01/08 01:22:42;;;;;;;3.17;1.70;;;;;;;9.50;100.00;99721.56;686128;28;1503;-64
2023/01/08 01:23:03;;;;;;;2.78;1.75;;;;;;;9.56;100.00;99714.56;682366;28;1340;-66
2023/01/08 01:23:23;;;;;;;3.63;1.80;;;;;;;9.60;100.00;99719.69;683920;28;1352;-65
2023/01/08 01:23:44;;;;;;;3.90;1.73;;;;;;;9.72;100.00;99716.03;683846;28;1950;-66
2023/01/08 01:24:05;;;;;;;5.43;2.00;;;;;;;9.73;100.00;99717.72;682905;28;1474;-66
2023/01/08 01:24:26;;;;;;;4.35;1.98;;;;;;;9.65;100.00;99719.59;682867;28;1490;-65
2023/01/08 01:24:47;;;;;;;3.00;1.70;;;;;;;9.69;100.00;99721.28;683534;28;4391;-64
2023/01/08 01:25:08;;;;;;;3.20;1.80;;;;;;;9.64;100.00;99721.34;687568;28;1270;-64
2023/01/08 01:25:28;;;;;;;3.90;1.80;;;;;;;9.61;100.00;99723.16;684589;28;1195;-64
2023/01/08 01:25:49;;;;;;;3.43;1.77;;;;;;;9.56;100.00;99722.38;683060;28;1441;-64
2023/01/08 01:26:16;;;;;;;3.17;1.77;;;;;;;9.52;100.00;99719.78;686128;28;1378;-64
2023/01/08 01:26:41;;;;;;;3.40;1.60;;;;;;;9.60;100.00;99716.22;684933;28;1392;-66
2023/01/08 01:27:01;;;;;;;3.38;1.80;;;;;;;9.60;100.00;99717.06;685864;28;1396;-65
2023/01/08 01:27:21;;;;;;;3.30;1.80;;;;;;;9.66;100.00;99719.59;687822;28;1441;-65
2023/01/08 01:27:42;;;;;;;3.40;1.60;;;;;;;9.65;100.00;99714.38;688477;28;5227;-65
2023/01/08 01:28:02;;;;;;;3.13;1.70;;;;;;;9.67;100.00;99712.63;685882;28;1409;-65
2023/01/08 01:28:23;;;;;;;3.50;1.70;;;;;;;9.69;100.00;99708.22;685775;28;1449;-65
2023/01/08 01:28:46;;;;;;;3.53;1.77;;;;;;;9.75;100.00;99709.88;685530;28;1140;-65
2023/01/08 01:29:07;;;;;;;3.60;1.90;;;;;;;9.72;100.00;99710.81;687872;28;1577;-65
2023/01/08 01:29:27;;;;;;;3.28;1.80;;;;;;;9.71;100.00;99711.69;686998;28;1219;-65
2023/01/08 01:29:52;;;;;;;3.05;1.70;;;;;;;9.72;100.00;99710.81;688217;28;1129;-65
2023/01/08 01:30:12;;;;;;;2.80;1.67;;;;;;;9.72;100.00;99710.81;685978;28;1568;-63
2023/01/08 01:30:33;;;;;;;3.50;1.90;;;;;;;9.71;100.00;99709.06;687915;28;1623;-64
2023/01/08 01:30:55;;;;;;;4.00;1.90;;;;;;;9.68;100.00;99709.13;688428;28;4395;-65
2023/01/08 01:31:16;;;;;;;3.83;1.90;;;;;;;9.63;100.00;99711.81;688552;28;1470;-65
2023/01/08 01:31:37;;;;;;;3.05;1.80;;;;;;;9.60;100.00;99711.00;687884;28;1324;-65
2023/01/08 01:31:57;;;;;;;3.13;1.73;;;;;;;9.60;100.00;99711.84;688386;28;1601;-65
2023/01/08 01:32:18;;;;;;;2.90;1.67;;;;;;;9.71;100.00;99716.91;686108;28;1549;-65
2023/01/08 01:32:38;;;;;;;3.05;1.88;;;;;;;9.73;100.00;99717.72;683057;28;1501;-65
2023/01/08 01:32:59;;;;;;;3.22;1.83;;;;;;;9.70;100.00;99718.63;684477;28;1424;-64
2023/01/08 01:33:19;;;;;;;3.07;1.77;;;;;;;9.72;100.00;99710.81;686525;28;1447;-64
2023/01/08 01:33:40;;;;;;;2.80;1.60;;;;;;;9.71;100.00;99714.28;682921;28;4390;-64
2023/01/08 01:34:00;;;;;;;2.55;1.60;;;;;;;9.77;100.00;99718.56;683359;28;1279;-64
2023/01/08 01:34:21;;;;;;;3.08;1.70;;;;;;;9.68;100.00;99719.56;689089;28;1255;-66
2023/01/08 01:34:41;;;;;;;4.13;2.00;;;;;;;9.58;100.00;99712.75;688272;28;1471;-65
2023/01/08 01:35:02;;;;;;;3.50;1.88;;;;;;;9.54;100.00;99712.81;685535;28;1435;-64
2023/01/08 01:35:22;;;;;;;3.28;1.88;;;;;;;9.50;100.00;99711.13;684985;28;1278;-64
2023/01/08 01:35:43;;;;;;;3.43;1.93;;;;;;;9.51;100.00;99706.78;684561;28;1408;-64
2023/01/08 01:36:04;;;;;;;3.20;1.73;;;;;;;9.47;100.00;99711.19;685544;28;1215;-64
2023/01/08 01:36:25;;;;;;;3.13;1.67;;;;;;;9.44;100.00;99719.06;685778;28;1447;-64
2023/01/08 01:36:45;;;;;;;2.72;1.63;;;;;;;9.48;100.00;99712.91;682896;28;4329;-64
2023/01/08 01:37:06;;;;;;;3.33;1.80;;;;;;;9.50;100.00;99718.97;686287;28;1469;-63
2023/01/08 01:37:27;;;;;;;3.03;1.70;;;;;;;9.50;100.00;99718.13;688715;28;1517;-65
2023/01/08 01:37:47;;;;;;;3.70;2.00;;;;;;;9.46;100.00;99712.06;686867;28;1502;-62
2023/01/08 01:38:07;;;;;;;2.97;1.60;;;;;;;9.44;100.00;99711.25;685233;28;1251;-64
2023/01/08 01:38:28;;;;;;;3.03;1.60;;;;;;;9.48;100.00;99712.91;686283;28;1490;-65
2023/01/08 01:38:51;;;;;;;3.70;1.70;;;;;;;9.49;100.00;99708.56;683641;28;5071;-64
2023/01/08 01:39:11;;;;;;;3.47;1.80;;;;;;;9.56;100.00;99704.13;685617;28;1480;-64
2023/01/08 01:39:32;;;;;;;3.55;1.83;;;;;;;9.59;100.00;99709.28;686868;28;1678;-64
2023/01/08 01:39:52;;;;;;;4.07;1.83;;;;;;;9.55;100.00;99703.22;687601;28;4612;-64
2023/01/08 01:40:13;;;;;;;4.38;1.88;;;;;;;9.60;100.00;99703.19;688048;28;1469;-65
2023/01/08 01:40:33;;;;;;;3.23;1.70;;;;;;;9.56;100.00;99707.56;688015;28;1653;-65
2023/01/08 01:40:53;;;;;;;3.03;1.75;;;;;;;9.53;100.00;99705.88;688174;28;1333;-64